Time;durP1;ratioP1;P1;durP2;ratioP2;P2;SDS_P1;SDS_P2;PMS_P1;PMS_P2;Temp;Humidity;BMP_temperature;BMP_pressure;BME280_temperature;BME280_humidity;BME280_pressure;Samples;Min_cycle;Max_cycle;Signal;HPM_P1;HPM_P2
2022/10/29 00:00:35;;;;;;;13.50;5.55;;;11.50;99.90;;;;;;5058025;28;20179;-92
2022/10/29 00:03:01;;;;;;;9.48;4.97;;;11.50;99.90;;;;;;5063457;28;20190;-90
2022/10/29 00:05:26;;;;;;;16.02;6.25;;;11.50;99.90;;;;;;5075623;28;20178;-91
2022/10/29 00:07:52;;;;;;;8.57;4.20;;;11.60;99.90;;;;;;5057397;28;20206;-92
2022/10/29 00:10:18;;;;;;;8.77;4.80;;;11.60;99.90;;;;;;5074105;28;20179;-91
2022/10/29 00:12:43;;;;;;;13.73;5.35;;;11.60;99.90;;;;;;5073329;28;20190;-91
2022/10/29 00:15:10;;;;;;;9.82;4.25;;;11.60;99.90;;;;;;5073663;28;20632;-93
2022/10/29 00:17:35;;;;;;;9.30;5.85;;;11.60;99.90;;;;;;5073674;28;20175;-91
2022/10/29 00:20:01;;;;;;;11.20;5.05;;;11.60;99.90;;;;;;5055206;28;20180;-92
2022/10/29 00:22:27;;;;;;;12.38;5.78;;;11.60;99.90;;;;;;5053040;28;20259;-92
2022/10/29 00:24:52;;;;;;;12.98;4.47;;;11.60;99.90;;;;;;5037280;28;20184;-91
2022/10/29 00:27:18;;;;;;;11.60;5.57;;;11.50;99.90;;;;;;5053518;28;20290;-91
2022/10/29 00:29:43;;;;;;;8.68;5.13;;;11.50;99.90;;;;;;5054973;28;20263;-91
2022/10/29 00:32:09;;;;;;;11.57;5.10;;;11.50;99.90;;;;;;5037141;28;20180;-92
2022/10/29 00:34:36;;;;;;;11.20;5.55;;;11.50;99.90;;;;;;5036518;28;20191;-91
2022/10/29 00:37:03;;;;;;;8.27;4.82;;;11.40;99.90;;;;;;5037701;28;20337;-90
2022/10/29 00:39:29;;;;;;;9.80;4.75;;;11.30;99.90;;;;;;5053644;28;20188;-91
2022/10/29 00:41:55;;;;;;;10.15;4.45;;;;;;;;;;5036963;28;20586;-91
2022/10/29 00:44:26;;;;;;;9.07;4.97;;;11.30;99.90;;;;;;5053174;28;20542;-91
2022/10/29 00:47:17;;;;;;;7.25;4.03;;;11.30;99.90;;;;;;5054257;28;20188;-90
2022/10/29 00:49:46;;;;;;;11.43;4.68;;;11.50;99.90;;;;;;5042147;28;20640;-91
2022/10/29 00:52:13;;;;;;;9.98;4.25;;;11.20;99.90;;;;;;5054434;28;20528;-90
2022/10/29 00:54:42;;;;;;;6.90;3.60;;;11.20;99.90;;;;;;5053093;28;20175;-90
2022/10/29 00:57:25;;;;;;;10.57;5.13;;;11.20;99.90;;;;;;5036472;28;20190;-91
2022/10/29 00:59:51;;;;;;;10.30;5.38;;;11.20;99.90;;;;;;5052357;28;20179;-91
2022/10/29 01:02:17;;;;;;;8.77;4.28;;;11.20;99.90;;;;;;5052734;28;20188;-91
2022/10/29 01:04:44;;;;;;;11.23;5.30;;;11.20;99.90;;;;;;5053094;28;20175;-92
2022/10/29 01:07:10;;;;;;;10.45;4.43;;;11.20;99.90;;;;;;5053481;28;20672;-91
2022/10/29 01:09:37;;;;;;;11.43;4.65;;;11.10;99.90;;;;;;5020341;28;20191;-91
2022/10/29 01:12:08;;;;;;;13.73;3.95;;;11.10;99.90;;;;;;5053397;28;20184;-91
2022/10/29 01:14:42;;;;;;;7.57;4.68;;;11.10;99.90;;;;;;5054783;28;20205;-92
2022/10/29 01:17:21;;;;;;;8.23;4.00;;;11.10;99.90;;;;;;5054411;28;20220;-91
2022/10/29 01:20:28;;;;;;;11.55;5.72;;;11.10;99.90;;;;;;5052881;28;20192;-91
2022/10/29 01:23:40;;;;;;;8.15;4.18;;;11.10;99.90;;;;;;5072667;28;20221;-90
2022/10/29 01:26:12;;;;;;;7.03;4.18;;;11.10;99.90;;;;;;5078391;28;20190;-90
2022/10/29 01:28:53;;;;;;;8.95;5.15;;;11.10;99.90;;;;;;5077956;28;20148;-88
2022/10/29 01:31:31;;;;;;;8.88;4.07;;;11.10;99.90;;;;;;5078229;28;20203;-90
2022/10/29 01:34:16;;;;;;;10.30;4.90;;;11.20;99.90;;;;;;5077656;28;20173;-90
2022/10/29 01:36:44;;;;;;;9.13;4.68;;;11.20;99.90;;;;;;5077842;28;20186;-89
2022/10/29 01:39:37;;;;;;;7.07;4.18;;;11.20;99.90;;;;;;5078198;28;20164;-90
2022/10/29 01:42:16;;;;;;;11.88;4.43;;;11.10;99.90;;;;;;5077855;28;20175;-90
2022/10/29 01:44:49;;;;;;;12.43;4.50;;;11.30;99.90;;;;;;5081141;28;20154;-90
2022/10/29 01:47:18;;;;;;;7.07;4.10;;;11.20;99.90;;;;;;5097449;28;20203;-91
2022/10/29 01:49:53;;;;;;;8.27;4.32;;;11.00;99.90;;;;;;5080789;28;20266;-89
2022/10/29 01:52:21;;;;;;;7.78;4.95;;;11.10;99.90;;;;;;5097781;28;20179;-91
2022/10/29 01:54:47;;;;;;;6.57;3.78;;;11.20;99.90;;;;;;5097904;28;20183;-89
2022/10/29 01:57:27;;;;;;;6.50;3.67;;;11.10;99.90;;;;;;5086068;28;20183;-92
2022/10/29 01:59:59;;;;;;;4.78;3.25;;;11.10;99.90;;;;;;5083349;28;20182;-92
2022/10/29 02:02:45;;;;;;;6.90;3.80;;;11.10;99.90;;;;;;5075094;28;20186;-91
2022/10/29 02:05:36;;;;;;;7.30;3.92;;;11.10;99.90;;;;;;5075252;28;20183;-92
2022/10/29 02:08:10;;;;;;;8.05;4.13;;;11.00;99.90;;;;;;5073783;28;20234;-91
2022/10/29 02:10:45;;;;;;;9.93;3.88;;;11.00;99.90;;;;;;5078471;28;20227;-91
2022/10/29 02:13:14;;;;;;;11.85;4.25;;;10.90;99.90;;;;;;5078591;28;20631;-92
2022/10/29 02:15:46;;;;;;;7.28;4.43;;;11.00;99.90;;;;;;5078274;28;20175;-88
2022/10/29 02:18:12;;;;;;;10.35;4.38;;;10.80;99.90;;;;;;5081085;28;20187;-91
2022/10/29 02:20:42;;;;;;;6.55;4.30;;;10.90;99.90;;;;;;5061505;28;20159;-92
2022/10/29 02:23:08;;;;;;;6.45;3.45;;;10.90;99.90;;;;;;5080320;28;20226;-91
2022/10/29 02:25:34;;;;;;;8.65;3.72;;;10.90;99.90;;;;;;5085659;28;20648;-91
2022/10/29 02:27:59;;;;;;;11.13;4.75;;;10.90;99.90;;;;;;5048104;28;20262;-91
2022/10/29 02:30:25;;;;;;;7.03;3.47;;;10.90;99.90;;;;;;5061888;28;20649;-91
2022/10/29 02:32:51;;;;;;;9.95;3.65;;;11.00;99.90;;;;;;5060754;28;20562;-91
2022/10/29 02:35:16;;;;;;;7.68;4.25;;;10.90;99.90;;;;;;5060679;28;20544;-91
2022/10/29 02:37:42;;;;;;;6.53;3.22;;;;;;;;;;5061749;28;20652;-91
2022/10/29 02:40:08;;;;;;;8.93;4.07;;;10.90;99.90;;;;;;5060459;28;20232;-91
2022/10/29 02:42:34;;;;;;;5.50;3.10;;;10.90;99.90;;;;;;5077677;28;20181;-90
2022/10/29 02:45:00;;;;;;;5.32;3.17;;;10.90;99.90;;;;;;5068895;28;20183;-90
2022/10/29 02:47:26;;;;;;;5.50;3.50;;;10.90;99.90;;;;;;5050006;28;20672;-88
2022/10/29 02:49:52;;;;;;;8.43;4.07;;;10.90;99.90;;;;;;5050860;28;20180;-92
2022/10/29 02:52:18;;;;;;;6.10;3.47;;;10.90;99.90;;;;;;5042664;28;20563;-91
2022/10/29 02:54:43;;;;;;;6.00;3.22;;;10.90;99.90;;;;;;5068738;28;20195;-90
2022/10/29 02:57:09;;;;;;;6.47;2.90;;;10.80;99.90;;;;;;5052792;28;20187;-91
2022/10/29 02:59:35;;;;;;;4.97;3.22;;;11.00;99.90;;;;;;5079660;28;20183;-91
2022/10/29 03:02:01;;;;;;;8.02;3.85;;;;;;;;;;5080970;28;20179;-90
2022/10/29 03:04:26;;;;;;;5.53;3.63;;;11.10;99.90;;;;;;5095008;28;20187;-91
2022/10/29 03:06:52;;;;;;;6.70;3.80;;;11.10;99.90;;;;;;5098599;28;20210;-88
2022/10/29 03:09:18;;;;;;;4.45;2.47;;;11.10;99.90;;;;;;5099367;28;20167;-88
2022/10/29 03:11:44;;;;;;;7.68;3.97;;;;;;;;;;5062160;28;20184;-89
2022/10/29 03:14:09;;;;;;;8.73;3.70;;;11.10;99.90;;;;;;5071521;28;20214;-88
2022/10/29 03:16:35;;;;;;;6.88;3.40;;;11.20;99.90;;;;;;5069625;28;20183;-90
2022/10/29 03:19:01;;;;;;;7.75;3.72;;;11.20;99.90;;;;;;5072010;28;20176;-91
2022/10/29 03:21:27;;;;;;;4.93;3.60;;;;;;;;;;5078465;28;20164;-90
2022/10/29 03:23:52;;;;;;;7.28;3.88;;;11.10;99.90;;;;;;5078662;28;20238;-89
2022/10/29 03:26:18;;;;;;;7.75;4.38;;;11.20;99.90;;;;;;5077913;28;20192;-90
2022/10/29 03:28:44;;;;;;;9.68;3.60;;;11.20;99.90;;;;;;5077817;28;20187;-91
2022/10/29 03:31:09;;;;;;;8.35;4.40;;;11.20;99.90;;;;;;5062721;28;20180;-90
2022/10/29 03:33:35;;;;;;;6.75;3.33;;;11.20;99.90;;;;;;5056306;28;20187;-91
2022/10/29 03:36:06;;;;;;;5.80;3.15;;;11.20;99.90;;;;;;5055993;28;20647;-91
2022/10/29 03:38:33;;;;;;;5.15;3.20;;;11.20;99.90;;;;;;5056851;28;20160;-91
2022/10/29 03:40:59;;;;;;;6.35;3.40;;;11.20;99.90;;;;;;5072255;28;20215;-91
2022/10/29 03:43:25;;;;;;;12.43;4.00;;;11.20;99.90;;;;;;5071587;28;20179;-91
2022/10/29 03:45:55;;;;;;;5.30;3.40;;;11.10;99.90;;;;;;5056292;28;20760;-90
2022/10/29 03:48:22;;;;;;;5.22;3.35;;;10.90;99.90;;;;;;5055990;28;20172;-90
2022/10/29 03:50:56;;;;;;;4.80;2.88;;;11.10;99.90;;;;;;5071506;28;20171;-90
2022/10/29 03:53:22;;;;;;;6.63;3.28;;;11.10;99.90;;;;;;5055044;28;20626;-91
2022/10/29 03:55:50;;;;;;;4.80;3.47;;;11.10;99.90;;;;;;5075854;28;20199;-90
2022/10/29 03:58:16;;;;;;;5.90;3.42;;;11.10;99.90;;;;;;5065768;28;20182;-89
2022/10/29 04:00:41;;;;;;;8.02;3.67;;;11.10;99.90;;;;;;5086225;28;20180;-91
2022/10/29 04:03:07;;;;;;;4.63;3.05;;;11.10;99.90;;;;;;5053611;28;20176;-91
2022/10/29 04:05:32;;;;;;;5.00;3.30;;;11.10;99.90;;;;;;5053894;28;20234;-90
2022/10/29 04:07:58;;;;;;;6.63;3.05;;;11.00;99.90;;;;;;5053942;28;20751;-89
2022/10/29 04:10:25;;;;;;;5.10;2.72;;;11.00;99.90;;;;;;5054415;28;20184;-91
2022/10/29 04:12:51;;;;;;;5.07;3.30;;;11.00;99.90;;;;;;5070966;28;20683;-91
2022/10/29 04:15:17;;;;;;;7.22;3.13;;;11.00;99.90;;;;;;5055364;28;20176;-91
2022/10/29 04:17:43;;;;;;;4.25;2.67;;;11.00;99.90;;;;;;5055388;28;20180;-90
2022/10/29 04:20:09;;;;;;;6.50;2.78;;;11.00;99.90;;;;;;5053459;28;20176;-90
2022/10/29 04:22:34;;;;;;;6.90;2.90;;;11.00;99.90;;;;;;5053696;28;20239;-91
2022/10/29 04:25:00;;;;;;;7.78;3.28;;;11.00;99.90;;;;;;5053668;28;20187;-90
2022/10/29 04:27:26;;;;;;;5.97;2.50;;;11.00;99.90;;;;;;5054827;28;20659;-91
2022/10/29 04:29:52;;;;;;;3.78;2.55;;;11.00;99.90;;;;;;5070469;28;20179;-92
2022/10/29 04:32:17;;;;;;;4.60;2.55;;;11.00;99.90;;;;;;5053156;28;20538;-91
2022/10/29 04:34:43;;;;;;;4.38;3.03;;;11.00;99.90;;;;;;5052821;28;20617;-91
2022/10/29 04:37:09;;;;;;;5.10;2.75;;;11.00;99.90;;;;;;5053482;28;20544;-91
2022/10/29 04:39:34;;;;;;;5.53;3.30;;;11.00;99.90;;;;;;5053782;28;20187;-90
2022/10/29 04:42:00;;;;;;;3.85;2.40;;;11.00;99.90;;;;;;5061987;28;20187;-91
2022/10/29 04:44:25;;;;;;;5.85;3.13;;;10.90;99.90;;;;;;5056556;28;20636;-92
2022/10/29 04:46:51;;;;;;;3.88;2.50;;;11.00;99.90;;;;;;5056678;28;20683;-90
2022/10/29 04:49:17;;;;;;;6.03;2.80;;;11.00;99.90;;;;;;5055940;28;20639;-90
2022/10/29 04:51:42;;;;;;;6.03;3.55;;;11.00;99.90;;;;;;5073604;28;20185;-91
2022/10/29 04:54:08;;;;;;;2.22;1.67;;;;;;;;;;5065794;28;20183;-90
2022/10/29 04:56:34;;;;;;;3.08;2.65;;;11.00;99.90;;;;;;5067200;28;20190;-91
2022/10/29 04:59:00;;;;;;;5.00;2.72;;;11.00;99.90;;;;;;5054098;28;20191;-90
2022/10/29 05:01:26;;;;;;;5.45;3.00;;;11.00;99.90;;;;;;5046651;28;20601;-92
2022/10/29 05:03:51;;;;;;;2.63;1.85;;;11.00;99.90;;;;;;5062727;28;20171;-90
2022/10/29 05:06:17;;;;;;;5.82;2.63;;;11.00;99.90;;;;;;5055099;28;20180;-91
2022/10/29 05:08:43;;;;;;;4.38;2.55;;;;;;;;;;5057759;28;20321;-90
2022/10/29 05:11:09;;;;;;;5.00;2.33;;;11.00;99.90;;;;;;5065037;28;20186;-90
2022/10/29 05:13:35;;;;;;;4.07;2.60;;;10.70;99.90;;;;;;5061453;28;20191;-91
2022/10/29 05:16:01;;;;;;;3.42;2.25;;;10.70;99.90;;;;;;5065425;28;21001;-93
2022/10/29 05:18:30;;;;;;;2.80;2.00;;;11.20;99.90;;;;;;5059583;28;20214;-92
2022/10/29 05:20:56;;;;;;;3.63;2.08;;;11.10;99.90;;;;;;5045296;28;20194;-92
2022/10/29 05:23:22;;;;;;;2.55;1.80;;;11.00;99.90;;;;;;5050990;28;20238;-93
2022/10/29 05:25:50;;;;;;;1.98;1.55;;;11.00;99.90;;;;;;5042618;28;20203;-92
2022/10/29 05:28:18;;;;;;;6.03;3.78;;;11.00;99.90;;;;;;5055778;28;20208;-90
2022/10/29 05:30:44;;;;;;;3.92;2.45;;;11.00;99.90;;;;;;5060175;28;20195;-89
2022/10/29 05:33:12;;;;;;;4.72;2.80;;;11.10;99.90;;;;;;5062347;28;20207;-90
2022/10/29 05:35:38;;;;;;;2.83;2.10;;;11.10;99.90;;;;;;5039733;28;20696;-89
2022/10/29 05:38:05;;;;;;;4.20;2.20;;;11.10;99.90;;;;;;5056526;28;20325;-89
2022/10/29 05:40:31;;;;;;;6.55;2.35;;;;;;;;;;5060931;28;20187;-91
2022/10/29 05:42:57;;;;;;;3.08;2.28;;;11.10;99.90;;;;;;5061088;28;20262;-90
2022/10/29 05:45:23;;;;;;;3.75;2.42;;;;;;;;;;5056191;28;20767;-87
2022/10/29 05:47:55;;;;;;;4.35;2.22;;;11.20;99.90;;;;;;5063113;28;20203;-88
2022/10/29 05:50:21;;;;;;;6.22;2.88;;;11.20;99.90;;;;;;5074552;28;20193;-91
2022/10/29 05:52:54;;;;;;;3.85;2.10;;;11.20;99.90;;;;;;5057092;28;20179;-89
2022/10/29 05:55:20;;;;;;;3.70;2.25;;;11.20;99.90;;;;;;5067206;28;20268;-89
2022/10/29 05:57:46;;;;;;;4.45;2.50;;;;;;;;;;5059838;28;20656;-87
2022/10/29 06:00:12;;;;;;;5.03;2.72;;;11.30;99.90;;;;;;5056169;28;20226;-88
2022/10/29 06:02:37;;;;;;;9.95;2.95;;;11.30;99.90;;;;;;5064704;28;20531;-88
2022/10/29 06:05:06;;;;;;;4.18;2.42;;;11.30;99.90;;;;;;5072115;28;20278;-89
2022/10/29 06:07:32;;;;;;;3.28;2.30;;;11.30;99.90;;;;;;5059308;28;21580;-88
2022/10/29 06:09:58;;;;;;;4.90;2.70;;;;;;;;;;5040203;28;20272;-92
2022/10/29 06:12:29;;;;;;;3.65;2.30;;;11.40;99.90;;;;;;5069813;28;20644;-89
2022/10/29 06:14:55;;;;;;;6.63;3.17;;;11.50;99.90;;;;;;5064483;28;20187;-88
2022/10/29 06:17:21;;;;;;;5.53;2.90;;;11.70;99.90;;;;;;5063396;28;20246;-88
2022/10/29 06:19:47;;;;;;;4.55;2.95;;;;;;;;;;5061436;28;20651;-90
2022/10/29 06:22:13;;;;;;;5.25;2.60;;;11.50;99.90;;;;;;5057300;28;20322;-88
2022/10/29 06:24:39;;;;;;;4.10;2.55;;;11.50;99.90;;;;;;5065482;28;20274;-87
2022/10/29 06:27:10;;;;;;;3.80;2.38;;;11.70;99.90;;;;;;5056098;28;20687;-88
2022/10/29 06:29:36;;;;;;;4.50;2.42;;;;;;;;;;5051264;28;20238;-88
2022/10/29 06:32:05;;;;;;;6.47;2.83;;;11.80;99.90;;;;;;5068819;28;20180;-88
2022/10/29 06:34:31;;;;;;;4.30;2.65;;;;;;;;;;5068354;28;20183;-88
2022/10/29 06:36:57;;;;;;;6.10;2.53;;;;;;;;;;5056561;28;20192;-87
2022/10/29 06:39:23;;;;;;;3.33;2.05;;;12.20;99.90;;;;;;5062898;28;20183;-87
2022/10/29 06:41:49;;;;;;;4.57;2.45;;;;;;;;;;5064120;28;20187;-88
2022/10/29 06:44:15;;;;;;;6.65;3.15;;;;;;;;;;5060407;28;20270;-87
2022/10/29 06:46:41;;;;;;;5.45;3.03;;;;;;;;;;5060837;28;20215;-87
2022/10/29 06:49:07;;;;;;;4.20;2.70;;;;;;;;;;5054508;28;20305;-86
2022/10/29 06:51:41;;;;;;;6.03;2.83;;;12.00;99.90;;;;;;5061540;28;20636;-88
2022/10/29 06:54:07;;;;;;;5.70;3.00;;;;;;;;;;5047144;28;20196;-86
2022/10/29 06:56:33;;;;;;;7.38;3.80;;;;;;;;;;5055602;28;20199;-87
2022/10/29 06:58:59;;;;;;;4.95;2.63;;;12.20;99.90;;;;;;5067732;28;20182;-86
2022/10/29 07:01:27;;;;;;;4.88;3.00;;;;;;;;;;5056341;28;20199;-86
2022/10/29 07:03:53;;;;;;;7.40;3.60;;;;;;;;;;5054057;28;20278;-86
2022/10/29 07:06:19;;;;;;;4.95;3.15;;;;;;;;;;5057621;28;20192;-87
2022/10/29 07:08:45;;;;;;;4.40;2.13;;;;;;;;;;5056113;28;20330;-87
2022/10/29 07:11:12;;;;;;;4.85;2.83;;;;;;;;;;5059268;28;20215;-86
2022/10/29 07:13:38;;;;;;;9.77;3.13;;;;;;;;;;5068999;28;20262;-87
2022/10/29 07:16:04;;;;;;;5.53;3.15;;;12.30;99.90;;;;;;5060502;28;20180;-87
2022/10/29 07:18:31;;;;;;;6.07;2.85;;;12.30;99.90;;;;;;5047079;28;20195;-87
2022/10/29 07:20:57;;;;;;;6.97;3.40;;;;;;;;;;5065146;28;20191;-87
2022/10/29 07:23:24;;;;;;;6.90;2.88;;;;;;;;;;5068859;28;20317;-86
2022/10/29 07:25:52;;;;;;;6.03;2.58;;;12.40;99.90;;;;;;5069264;28;20233;-86
2022/10/29 07:28:19;;;;;;;6.95;2.67;;;12.30;99.90;;;;;;5070984;28;20207;-85
2022/10/29 07:30:47;;;;;;;5.25;2.95;;;12.40;99.90;;;;;;5061587;28;20191;-87
2022/10/29 07:33:13;;;;;;;6.97;2.90;;;12.80;99.90;;;;;;5070814;28;20266;-87
2022/10/29 07:35:39;;;;;;;4.55;3.03;;;;;;;;;;5062030;28;20198;-87
2022/10/29 07:38:07;;;;;;;6.40;2.25;;;12.50;99.90;;;;;;5060869;28;20241;-86
2022/10/29 07:40:33;;;;;;;6.72;2.97;;;;;;;;;;5074070;28;20174;-88
2022/10/29 07:42:59;;;;;;;3.42;2.08;;;;;;;;;;5068507;28;20188;-88
2022/10/29 07:45:25;;;;;;;7.80;3.08;;;12.60;99.90;;;;;;5072248;28;20191;-88
2022/10/29 07:51:13;;;;;;;5.63;1.92;;;;;;;;;;5289002;22;20268;-87
2022/10/29 07:53:39;;;;;;;4.80;2.60;;;12.80;99.90;;;;;;5054020;28;20215;-84
2022/10/29 07:56:04;;;;;;;5.43;2.50;;;12.90;99.90;;;;;;5019921;28;20655;-85
2022/10/29 07:58:30;;;;;;;3.33;2.53;;;13.00;99.90;;;;;;5037285;28;20600;-86
2022/10/29 08:00:58;;;;;;;5.20;2.22;;;13.10;99.90;;;;;;5036890;28;20270;-85
2022/10/29 08:03:24;;;;;;;5.05;2.70;;;13.30;99.90;;;;;;5036858;28;20663;-88
2022/10/29 08:05:50;;;;;;;6.22;2.83;;;13.40;99.90;;;;;;5051590;28;20207;-85
2022/10/29 08:08:16;;;;;;;5.63;2.92;;;13.50;99.90;;;;;;5069785;28;20215;-86
2022/10/29 08:10:43;;;;;;;2.97;2.42;;;13.60;99.90;;;;;;5037661;28;20207;-87
2022/10/29 08:13:08;;;;;;;4.82;2.65;;;13.70;99.90;;;;;;5036433;28;20294;-86
2022/10/29 08:15:34;;;;;;;3.83;2.70;;;13.70;99.90;;;;;;5036551;28;20259;-86
2022/10/29 08:18:01;;;;;;;4.50;2.85;;;13.70;99.90;;;;;;5037151;28;20190;-86
2022/10/29 08:20:28;;;;;;;7.00;2.58;;;13.70;99.90;;;;;;5055287;28;20187;-86
2022/10/29 08:22:54;;;;;;;4.28;2.22;;;13.80;99.90;;;;;;5019792;28;20187;-86
2022/10/29 08:25:20;;;;;;;5.13;2.65;;;;;;;;;;5019459;28;20184;-85
2022/10/29 08:27:59;;;;;;;3.22;2.08;;;14.00;99.90;;;;;;5054032;28;20215;-86
2022/10/29 08:30:25;;;;;;;5.63;2.60;;;14.10;99.90;;;;;;5036101;28;20184;-87
2022/10/29 08:32:50;;;;;;;4.50;2.80;;;14.10;99.90;;;;;;5035793;28;20655;-86
2022/10/29 08:35:16;;;;;;;5.40;3.10;;;;;;;;;;5035759;28;20187;-86
2022/10/29 08:37:43;;;;;;;4.72;2.65;;;14.40;99.90;;;;;;5036000;28;20179;-87
2022/10/29 08:40:17;;;;;;;4.85;2.42;;;14.60;99.90;;;;;;5035853;28;20275;-87
2022/10/29 08:43:00;;;;;;;4.70;3.17;;;14.70;99.90;;;;;;5036037;28;20215;-86
2022/10/29 08:45:31;;;;;;;3.08;2.30;;;14.90;99.90;;;;;;5053814;28;20221;-87
2022/10/29 08:48:19;;;;;;;5.57;2.67;;;15.10;99.90;;;;;;5053340;28;20254;-86
2022/10/29 08:51:29;;;;;;;5.47;3.00;;;14.90;99.90;;;;;;5035875;28;20271;-87
2022/10/29 08:53:57;;;;;;;5.85;3.25;;;15.20;99.90;;;;;;5045764;28;20191;-87
2022/10/29 08:56:35;;;;;;;5.38;3.15;;;15.20;99.90;;;;;;5037755;28;20180;-86
2022/10/29 08:59:13;;;;;;;7.13;2.75;;;15.10;99.90;;;;;;5036182;28;20182;-86
2022/10/29 09:01:39;;;;;;;6.72;3.42;;;15.00;99.90;;;;;;5053277;28;20163;-87
2022/10/29 09:04:22;;;;;;;4.82;2.42;;;15.00;99.90;;;;;;5018808;28;20507;-86
2022/10/29 09:07:18;;;;;;;5.93;3.53;;;15.10;99.90;;;;;;5053426;28;20217;-87
2022/10/29 09:10:11;;;;;;;11.77;3.80;;;15.30;99.90;;;;;;5034881;28;20577;-86
2022/10/29 09:12:43;;;;;;;8.35;3.42;;;15.50;99.90;;;;;;5027053;28;20636;-87
2022/10/29 09:15:40;;;;;;;10.57;2.53;;;15.60;99.90;;;;;;5035745;28;20213;-87
2022/10/29 09:18:43;;;;;;;4.25;2.45;;;15.80;99.90;;;;;;5036520;28;20218;-87
2022/10/29 09:21:32;;;;;;;4.15;2.90;;;15.90;99.90;;;;;;5039608;28;20186;-86
2022/10/29 09:24:12;;;;;;;5.30;3.15;;;16.10;99.90;;;;;;5039685;28;20520;-85
2022/10/29 09:27:02;;;;;;;11.45;3.13;;;16.30;99.90;;;;;;5057453;28;20203;-86
2022/10/29 09:29:53;;;;;;;7.25;3.67;;;16.40;99.90;;;;;;5052949;28;20161;-86
2022/10/29 09:32:45;;;;;;;6.63;3.00;;;16.50;99.90;;;;;;5051976;28;20171;-86
2022/10/29 09:35:14;;;;;;;7.38;3.40;;;16.50;99.90;;;;;;5051724;28;20164;-86
2022/10/29 09:37:52;;;;;;;9.95;3.88;;;16.60;99.90;;;;;;5033710;28;20284;-86
2022/10/29 09:40:32;;;;;;;6.57;3.22;;;16.80;99.90;;;;;;5033466;28;20544;-86
2022/10/29 09:43:04;;;;;;;6.72;3.97;;;16.80;99.90;;;;;;5035492;28;20194;-87
2022/10/29 09:45:41;;;;;;;6.35;3.75;;;16.90;99.90;;;;;;5034691;28;20179;-87
2022/10/29 09:48:18;;;;;;;6.72;3.00;;;16.90;99.90;;;;;;5052497;28;20639;-87
2022/10/29 09:50:59;;;;;;;7.05;3.50;;;17.30;99.90;;;;;;5055108;28;20164;-86
2022/10/29 09:53:25;;;;;;;8.10;3.20;;;17.00;99.90;;;;;;5037415;28;20164;-87
2022/10/29 09:55:54;;;;;;;6.63;3.13;;;17.20;99.90;;;;;;5054989;28;20175;-85
2022/10/29 09:58:22;;;;;;;5.15;2.75;;;17.20;99.90;;;;;;5037121;28;20223;-87
2022/10/29 10:00:49;;;;;;;9.18;3.00;;;17.30;99.90;;;;;;5053931;28;20186;-89
2022/10/29 10:03:34;;;;;;;11.40;3.00;;;17.30;99.90;;;;;;5054638;28;20172;-86
2022/10/29 10:06:09;;;;;;;7.38;4.10;;;17.40;99.90;;;;;;5053032;28;20551;-88
2022/10/29 10:09:00;;;;;;;8.95;3.97;;;17.20;99.90;;;;;;5038016;28;20539;-87
2022/10/29 10:11:42;;;;;;;9.52;3.13;;;17.10;99.90;;;;;;5052484;28;20179;-86
2022/10/29 10:14:20;;;;;;;7.22;3.40;;;17.10;99.90;;;;;;5051828;28;20172;-87
2022/10/29 10:16:57;;;;;;;4.53;2.22;;;17.20;99.90;;;;;;5052156;28;20238;-88
2022/10/29 10:19:28;;;;;;;6.45;3.30;;;17.20;99.90;;;;;;5052452;28;20151;-86
2022/10/29 10:22:00;;;;;;;6.97;3.70;;;17.20;99.90;;;;;;5033870;28;20539;-86
2022/10/29 10:24:35;;;;;;;5.60;3.60;;;17.30;99.90;;;;;;5052185;28;20172;-86
2022/10/29 10:27:25;;;;;;;8.05;4.10;;;17.50;99.90;;;;;;5052058;28;20221;-86
2022/10/29 10:30:03;;;;;;;6.95;3.70;;;17.60;99.90;;;;;;5051399;28;20176;-87
2022/10/29 10:32:29;;;;;;;5.35;3.38;;;17.70;99.90;;;;;;5037770;28;20659;-88
2022/10/29 10:34:54;;;;;;;5.68;3.22;;;17.80;99.90;;;;;;5021822;28;20176;-85
2022/10/29 10:37:20;;;;;;;8.38;3.63;;;;;;;;;;5037616;28;20273;-88
2022/10/29 10:39:52;;;;;;;8.40;3.72;;;17.90;99.90;;;;;;5036979;28;20263;-87
2022/10/29 10:42:23;;;;;;;14.85;4.57;;;18.00;99.90;;;;;;5037348;28;20179;-86
2022/10/29 10:44:55;;;;;;;8.27;4.03;;;18.10;99.90;;;;;;5037179;28;20541;-86
2022/10/29 10:47:27;;;;;;;5.18;3.33;;;18.10;99.90;;;;;;5040692;28;20317;-86
2022/10/29 10:49:53;;;;;;;7.03;3.75;;;18.30;99.90;;;;;;5037691;28;20267;-86
2022/10/29 10:52:30;;;;;;;11.43;4.50;;;18.30;99.90;;;;;;5036771;28;20314;-86
2022/10/29 10:55:08;;;;;;;6.93;3.67;;;18.50;99.90;;;;;;5054802;28;20199;-87
2022/10/29 10:57:48;;;;;;;9.95;4.13;;;18.30;99.90;;;;;;5054558;28;20195;-87
2022/10/29 11:00:20;;;;;;;6.38;3.63;;;18.10;99.90;;;;;;5054863;28;20209;-86
2022/10/29 11:02:55;;;;;;;7.72;3.97;;;18.10;99.90;;;;;;5054958;28;20200;-87
2022/10/29 11:05:25;;;;;;;7.57;3.60;;;18.10;99.90;;;;;;5054871;28;20242;-86
2022/10/29 11:08:27;;;;;;;9.13;3.38;;;18.00;99.90;;;;;;5054365;28;20180;-86
2022/10/29 11:11:07;;;;;;;8.52;3.88;;;18.00;99.90;;;;;;5055421;28;20171;-86
2022/10/29 11:13:33;;;;;;;10.13;3.67;;;17.90;99.90;;;;;;5054820;28;20168;-85
2022/10/29 11:16:19;;;;;;;8.65;3.75;;;18.00;99.90;;;;;;5036991;28;20184;-86
2022/10/29 11:18:54;;;;;;;7.97;3.72;;;18.20;99.90;;;;;;5036802;28;20188;-87
2022/10/29 11:21:30;;;;;;;9.75;3.42;;;18.40;99.90;;;;;;5036505;28;20279;-86
2022/10/29 11:24:03;;;;;;;7.43;3.97;;;18.30;99.90;;;;;;5054441;28;20170;-86
2022/10/29 11:26:40;;;;;;;9.57;3.97;;;18.10;99.90;;;;;;5054444;28;20693;-86
2022/10/29 11:29:20;;;;;;;10.48;4.43;;;17.90;99.90;;;;;;5054089;28;20195;-85
2022/10/29 11:32:07;;;;;;;6.13;3.10;;;18.00;99.90;;;;;;5054262;28;20184;-87
2022/10/29 11:34:51;;;;;;;7.50;3.75;;;18.10;99.90;;;;;;5036119;28;20590;-84
2022/10/29 11:37:29;;;;;;;9.10;4.22;;;18.30;99.90;;;;;;5053740;28;20219;-85
2022/10/29 11:40:01;;;;;;;8.85;4.03;;;18.50;99.90;;;;;;5036460;28;20180;-87
2022/10/29 11:42:27;;;;;;;11.60;4.57;;;18.70;99.90;;;;;;5036523;28;20646;-88
2022/10/29 11:44:53;;;;;;;8.52;4.13;;;18.70;99.90;;;;;;5054939;28;20203;-90
2022/10/29 11:47:18;;;;;;;14.20;4.30;;;18.60;99.90;;;;;;5056173;28;20180;-88
2022/10/29 11:50:03;;;;;;;9.07;3.88;;;18.60;99.90;;;;;;5070387;28;20685;-88
2022/10/29 11:52:40;;;;;;;10.70;4.10;;;18.50;99.90;;;;;;5053724;28;20227;-87
2022/10/29 11:55:13;;;;;;;10.98;4.35;;;18.40;99.90;;;;;;5053980;28;20242;-89
2022/10/29 11:57:46;;;;;;;11.32;5.55;;;18.40;99.90;;;;;;5034694;28;20215;-87
2022/10/29 12:00:17;;;;;;;8.07;4.47;;;18.40;99.90;;;;;;5035439;28;20172;-88
2022/10/29 12:03:23;;;;;;;7.90;4.32;;;18.50;99.90;;;;;;5035371;28;20183;-87
2022/10/29 12:06:25;;;;;;;9.00;4.65;;;18.50;99.90;;;;;;5034718;28;20213;-89
2022/10/29 12:08:57;;;;;;;9.40;3.60;;;18.40;99.90;;;;;;5028291;28;20191;-90
2022/10/29 12:11:41;;;;;;;10.20;5.30;;;18.30;99.90;;;;;;5052555;28;20172;-90
2022/10/29 12:14:14;;;;;;;10.68;4.70;;;18.40;99.90;;;;;;5038359;28;20183;-89
2022/10/29 12:16:58;;;;;;;12.77;4.97;;;18.40;99.90;;;;;;5054446;28;20338;-89
2022/10/29 12:19:56;;;;;;;12.30;5.07;;;18.50;99.90;;;;;;5037061;28;20541;-91
2022/10/29 12:22:39;;;;;;;12.15;4.53;;;18.40;99.90;;;;;;5038296;28;20168;-91
2022/10/29 12:25:18;;;;;;;9.88;4.47;;;18.50;99.90;;;;;;5063043;28;20647;-92
2022/10/29 12:28:17;;;;;;;12.43;4.60;;;18.50;99.90;;;;;;5037156;28;20698;-87
2022/10/29 12:31:07;;;;;;;8.88;4.93;;;18.60;99.90;;;;;;5053041;28;20191;-91
2022/10/29 12:33:56;;;;;;;11.25;4.78;;;18.80;99.90;;;;;;5052976;28;20225;-92
2022/10/29 12:36:32;;;;;;;10.00;4.18;;;18.90;99.90;;;;;;5023604;28;20191;-92
2022/10/29 12:39:03;;;;;;;13.63;4.45;;;19.00;99.90;;;;;;5037693;28;20270;-90
2022/10/29 12:41:47;;;;;;;9.15;4.03;;;18.70;99.90;;;;;;5052399;28;20195;-87
2022/10/29 12:44:39;;;;;;;11.05;3.75;;;19.40;99.90;;;;;;5052696;28;20160;-88
2022/10/29 12:47:16;;;;;;;9.30;4.22;;;19.30;99.90;;;;;;5053231;28;20165;-88
2022/10/29 12:50:14;;;;;;;8.05;4.38;;;19.20;99.90;;;;;;5056174;28;20700;-89
2022/10/29 12:52:59;;;;;;;5.45;3.35;;;19.30;99.90;;;;;;5028939;28;20302;-89
2022/10/29 12:55:29;;;;;;;12.00;4.45;;;19.80;99.90;;;;;;5036644;28;20160;-89
2022/10/29 12:57:54;;;;;;;11.10;4.05;;;19.70;99.90;;;;;;5019445;28;20264;-87
2022/10/29 13:00:23;;;;;;;8.48;4.07;;;19.90;99.90;;;;;;5032058;28;20638;-88
2022/10/29 13:02:53;;;;;;;9.10;4.22;;;19.90;99.90;;;;;;5015066;28;20181;-87
2022/10/29 13:05:39;;;;;;;11.52;4.40;;;19.80;99.90;;;;;;5032221;28;20251;-86
2022/10/29 13:08:04;;;;;;;13.35;5.20;;;19.60;99.90;;;;;;5032125;28;20614;-88
2022/10/29 13:10:33;;;;;;;10.70;5.07;;;19.40;99.90;;;;;;5032670;28;20176;-88
2022/10/29 13:13:14;;;;;;;9.48;4.68;;;19.20;99.90;;;;;;5014163;28;20657;-87
2022/10/29 13:15:48;;;;;;;10.30;4.97;;;18.90;99.90;;;;;;5032156;28;20176;-84
2022/10/29 13:18:23;;;;;;;7.90;4.50;;;18.90;99.90;;;;;;5033494;28;20196;-85
2022/10/29 13:20:51;;;;;;;17.33;5.43;;;18.80;99.90;;;;;;5014700;28;20187;-85
2022/10/29 13:23:23;;;;;;;13.25;4.88;;;18.80;99.90;;;;;;5031541;28;20172;-87